createdAt,value
2023-02-13T00:01:29.982Z,98269.41
2023-02-13T00:03:58.254Z,98266.28
2023-02-13T00:06:26.549Z,98265.59
2023-02-13T00:08:54.814Z,98262.97
2023-02-13T00:11:24.401Z,98268.00
2023-02-13T00:13:52.626Z,98260.84
2023-02-13T00:16:20.946Z,98254.81
2023-02-13T00:18:49.180Z,98255.97
2023-02-13T00:21:17.526Z,98249.66
2023-02-13T00:23:45.778Z,98248.47
2023-02-13T00:26:17.469Z,98251.31
2023-02-13T00:28:47.465Z,98248.34
2023-02-13T00:31:17.219Z,98239.22
2023-02-13T00:33:45.590Z,98242.03
2023-02-13T00:36:15.585Z,98241.91
2023-02-13T00:38:44.546Z,98239.19
2023-02-13T00:41:13.102Z,98243.44
2023-02-13T00:43:41.398Z,98242.09
2023-02-13T00:46:11.477Z,98236.31
2023-02-13T00:48:40.248Z,98232.97
2023-02-13T00:51:09.178Z,98234.97
2023-02-13T00:53:38.297Z,98240.41
2023-02-13T00:56:07.792Z,98236.56
2023-02-13T00:58:36.172Z,98227.63
2023-02-13T01:01:04.622Z,98234.00
2023-02-13T01:03:34.404Z,98228.63
2023-02-13T01:06:02.898Z,98227.50
2023-02-13T01:08:31.310Z,98229.19
2023-02-13T01:10:59.949Z,98231.44
2023-02-13T01:13:28.398Z,98229.00
2023-02-13T01:15:56.843Z,98231.38
2023-02-13T01:18:25.519Z,98233.09
2023-02-13T01:20:59.882Z,98228.91
2023-02-13T01:23:31.720Z,98233.66
2023-02-13T01:26:00.238Z,98232.56
2023-02-13T01:28:28.716Z,98229.69
2023-02-13T01:30:58.389Z,98229.69
2023-02-13T01:33:28.630Z,98232.97
2023-02-13T01:35:58.396Z,98231.84
2023-02-13T01:38:26.824Z,98226.09
2023-02-13T01:40:55.922Z,98218.34
2023-02-13T01:43:24.500Z,98214.44
2023-02-13T01:45:55.862Z,98218.59
2023-02-13T01:48:26.078Z,98211.81
2023-02-13T01:50:58.679Z,98224.91
2023-02-13T01:53:33.403Z,98232.16
2023-02-13T01:56:08.422Z,98231.19
2023-02-13T01:58:39.919Z,98217.25
2023-02-13T02:01:09.644Z,98224.34
2023-02-13T02:03:39.186Z,98229.22
2023-02-13T02:06:13.192Z,98226.97
2023-02-13T02:08:41.713Z,98230.16
2023-02-13T02:11:12.860Z,98238.00
2023-02-13T02:13:41.264Z,98236.56
2023-02-13T02:16:09.521Z,98228.56
2023-02-13T02:18:37.803Z,98229.56
2023-02-13T02:21:38.682Z,98236.66
2023-02-13T02:24:23.197Z,98229.28
2023-02-13T02:27:11.405Z,98230.53
2023-02-13T02:30:18.254Z,98224.59
2023-02-13T02:33:30.822Z,98229.50
2023-02-13T02:36:10.593Z,98232.53
2023-02-13T02:38:48.532Z,98226.59
2023-02-13T02:41:35.496Z,98232.53
2023-02-13T02:44:11.191Z,98233.28
2023-02-13T02:47:02.791Z,98228.81
2023-02-13T02:49:50.890Z,98231.53
2023-02-13T02:52:21.282Z,98236.53
2023-02-13T02:55:07.922Z,98225.16
2023-02-13T02:57:57.596Z,98225.56
2023-02-13T03:00:44.586Z,98227.50
2023-02-13T03:03:36.101Z,98229.56
2023-02-13T03:06:12.293Z,98224.19
2023-02-13T03:09:01.271Z,98228.19
2023-02-13T03:11:49.403Z,98223.47
2023-02-13T03:14:21.733Z,98231.84
2023-02-13T03:17:08.306Z,98229.28
2023-02-13T03:20:05.481Z,98221.81
2023-02-13T03:22:39.279Z,98223.00
2023-02-13T03:25:14.898Z,98218.66
2023-02-13T03:28:05.391Z,98231.47
2023-02-13T03:30:41.201Z,98230.63
2023-02-13T03:33:20.463Z,98235.06
2023-02-13T03:36:09.168Z,98237.69
2023-02-13T03:38:43.625Z,98232.00
2023-02-13T03:41:22.264Z,98235.38
2023-02-13T03:43:59.431Z,98228.88
2023-02-13T03:46:28.604Z,98240.22
2023-02-13T03:49:11.345Z,98240.22
2023-02-13T03:51:42.458Z,98238.88
2023-02-13T03:54:18.122Z,98242.03
2023-02-13T03:57:06.187Z,98234.50
2023-02-13T03:59:36.915Z,98238.22
2023-02-13T04:02:06.860Z,98239.84
2023-02-13T04:04:41.639Z,98234.75
2023-02-13T04:07:12.135Z,98229.88
2023-02-13T04:09:42.440Z,98224.28
2023-02-13T04:12:17.109Z,98216.34
2023-02-13T04:14:49.257Z,98219.63
2023-02-13T04:17:21.181Z,98222.97
2023-02-13T04:19:49.569Z,98219.31
2023-02-13T04:22:17.937Z,98223.13
2023-02-13T04:24:46.900Z,98228.56
2023-02-13T04:27:16.982Z,98228.16
2023-02-13T04:29:45.456Z,98239.63
2023-02-13T04:32:14.295Z,98236.00
2023-02-13T04:34:42.507Z,98227.63
2023-02-13T04:37:10.793Z,98233.81
2023-02-13T04:39:39.031Z,98235.25
2023-02-13T04:42:07.343Z,98228.63
2023-02-13T04:44:36.960Z,98231.88
2023-02-13T04:47:05.305Z,98241.19
2023-02-13T04:49:33.624Z,98232.69
2023-02-13T04:52:01.949Z,98239.16
2023-02-13T04:54:30.289Z,98231.34
2023-02-13T04:56:58.546Z,98234.69
2023-02-13T04:59:26.843Z,98233.97
2023-02-13T05:01:56.510Z,98236.22
2023-02-13T05:04:25.427Z,98232.56
2023-02-13T05:06:53.842Z,98224.47
2023-02-13T05:09:22.175Z,98229.97
2023-02-13T05:11:52.684Z,98238.75
2023-02-13T05:14:21.345Z,98245.66
2023-02-13T05:16:50.721Z,98240.06
2023-02-13T05:19:20.413Z,98230.72
2023-02-13T05:22:06.191Z,98231.75
2023-02-13T05:24:34.480Z,98240.06
2023-02-13T05:27:02.775Z,98241.31
2023-02-13T05:29:31.072Z,98234.47
2023-02-13T05:32:00.884Z,98238.66
2023-02-13T05:34:30.740Z,98240.53
2023-02-13T05:36:59.145Z,98245.75
2023-02-13T05:39:27.547Z,98247.06
2023-02-13T05:41:55.948Z,98249.00
2023-02-13T05:44:24.276Z,98242.91
2023-02-13T05:46:53.306Z,98239.66
2023-02-13T05:49:22.923Z,98236.81
2023-02-13T05:51:53.167Z,98238.97
2023-02-13T05:54:21.581Z,98239.72
2023-02-13T05:56:49.849Z,98238.44
2023-02-13T05:59:18.239Z,98235.56
2023-02-13T06:01:46.548Z,98239.53
2023-02-13T06:04:15.043Z,98238.19
2023-02-13T06:06:43.437Z,98233.25
2023-02-13T06:09:13.348Z,98232.34
2023-02-13T06:11:41.692Z,98241.09
2023-02-13T06:14:10.014Z,98240.81
2023-02-13T06:16:38.256Z,98248.28
2023-02-13T06:19:06.593Z,98252.41
2023-02-13T06:21:37.887Z,98257.06
2023-02-13T06:24:06.998Z,98259.13
2023-02-13T06:26:36.692Z,98268.16
2023-02-13T06:29:06.513Z,98264.97
2023-02-13T06:31:35.151Z,98269.84
2023-02-13T06:34:03.487Z,98272.47
2023-02-13T06:36:31.946Z,98276.56
2023-02-13T06:39:00.244Z,98267.13
2023-02-13T06:41:28.569Z,98275.75
2023-02-13T06:43:58.226Z,98283.44
2023-02-13T06:46:26.554Z,98280.66
2023-02-13T06:48:55.160Z,98283.38
2023-02-13T06:51:23.404Z,98279.47
2023-02-13T06:53:51.716Z,98280.09
2023-02-13T06:56:19.997Z,98285.44
2023-02-13T06:58:48.226Z,98281.56
2023-02-13T07:01:17.838Z,98282.88
2023-02-13T07:03:47.704Z,98291.78
2023-02-13T07:06:18.799Z,98286.97
2023-02-13T07:08:47.187Z,98292.38
2023-02-13T07:11:19.155Z,98294.28
2023-02-13T07:13:47.382Z,98299.00
2023-02-13T07:16:17.412Z,98306.09
2023-02-13T07:18:45.742Z,98311.44
2023-02-13T07:21:14.049Z,98307.44
2023-02-13T07:23:42.264Z,98303.91
2023-02-13T07:26:12.069Z,98313.38
2023-02-13T07:28:40.465Z,98327.72
2023-02-13T07:31:08.871Z,98327.19
2023-02-13T07:33:38.968Z,98329.25
2023-02-13T07:36:08.115Z,98332.66
2023-02-13T07:38:36.400Z,98341.81
2023-02-13T07:41:05.178Z,98339.94
2023-02-13T07:43:33.613Z,98336.47
2023-02-13T07:46:03.359Z,98338.00
2023-02-13T07:48:31.750Z,98334.94
2023-02-13T07:51:03.252Z,98336.22
2023-02-13T07:53:32.669Z,98344.69
2023-02-13T07:56:00.871Z,98341.53
2023-02-13T07:58:29.115Z,98341.59
2023-02-13T08:00:57.359Z,98347.88
2023-02-13T08:03:25.606Z,98339.84
2023-02-13T08:05:53.916Z,98334.25
2023-02-13T08:08:23.557Z,98339.53
2023-02-13T08:11:09.467Z,98334.94
2023-02-13T08:13:38.492Z,98335.06
2023-02-13T08:16:06.872Z,98328.75
2023-02-13T08:18:35.114Z,98338.72
2023-02-13T08:21:03.339Z,98332.34
2023-02-13T08:23:33.034Z,98333.75
2023-02-13T08:26:02.290Z,98353.06
2023-02-13T08:28:30.861Z,98344.53
2023-02-13T08:30:59.210Z,98349.72
2023-02-13T08:33:27.465Z,98346.25
2023-02-13T08:35:55.805Z,98355.88
2023-02-13T08:38:24.436Z,98354.75
2023-02-13T08:40:54.016Z,98345.25
2023-02-13T08:43:22.240Z,98351.19
2023-02-13T08:45:50.514Z,98341.44
2023-02-13T08:48:18.821Z,98352.41
2023-02-13T08:50:47.029Z,98350.94
2023-02-13T08:53:15.231Z,98345.34
2023-02-13T08:55:43.440Z,98345.03
2023-02-13T08:58:13.429Z,98341.09
2023-02-13T09:00:41.626Z,98345.28
2023-02-13T09:03:10.510Z,98340.00
2023-02-13T09:05:38.824Z,98340.91
2023-02-13T09:08:08.193Z,98352.88
2023-02-13T09:10:36.408Z,98356.28
2023-02-13T09:13:04.773Z,98361.06
2023-02-13T09:15:34.816Z,98365.84
2023-02-13T09:18:03.047Z,98368.81
2023-02-13T09:20:31.288Z,98356.25
2023-02-13T09:22:59.492Z,98369.38
2023-02-13T09:25:27.789Z,98357.94
2023-02-13T09:27:56.051Z,98367.81
2023-02-13T09:30:24.575Z,98358.34
2023-02-13T09:32:55.619Z,98361.56
2023-02-13T09:35:24.516Z,98359.34
2023-02-13T09:37:52.762Z,98355.31
2023-02-13T09:40:25.526Z,98360.31
2023-02-13T09:42:54.085Z,98357.38
2023-02-13T09:45:23.146Z,98357.22
2023-02-13T09:47:51.634Z,98359.38
2023-02-13T09:50:24.043Z,98363.31
2023-02-13T09:52:53.527Z,98361.91
2023-02-13T09:55:24.469Z,98357.09
2023-02-13T09:57:56.724Z,98365.13
2023-02-13T10:00:28.808Z,98370.53
2023-02-13T10:03:19.473Z,98359.38
2023-02-13T10:05:57.733Z,98369.97
2023-02-13T10:08:40.160Z,98367.66
2023-02-13T10:11:16.744Z,98359.31
2023-02-13T10:14:06.002Z,98370.56
2023-02-13T10:16:36.937Z,98369.91
2023-02-13T10:19:10.081Z,98365.84
2023-02-13T10:21:43.810Z,98358.34
2023-02-13T10:24:14.084Z,98369.50
2023-02-13T10:26:45.469Z,98362.13
2023-02-13T10:29:36.323Z,98357.59
2023-02-13T10:32:08.395Z,98357.31
2023-02-13T10:34:39.948Z,98349.88
2023-02-13T10:37:15.554Z,98356.56
2023-02-13T10:39:46.548Z,98353.66
2023-02-13T10:42:23.838Z,98346.63
2023-02-13T10:45:01.130Z,98349.47
2023-02-13T10:47:44.470Z,98348.53
2023-02-13T10:50:21.885Z,98344.97
2023-02-13T10:52:58.413Z,98341.16
2023-02-13T10:55:46.666Z,98343.47
2023-02-13T10:58:19.596Z,98339.88
2023-02-13T11:00:50.573Z,98334.13
2023-02-13T11:03:21.131Z,98329.28
2023-02-13T11:05:49.978Z,98320.78
2023-02-13T11:08:23.078Z,98331.03
2023-02-13T11:10:51.864Z,98321.81
2023-02-13T11:13:22.036Z,98318.69
2023-02-13T11:16:02.197Z,98311.66
2023-02-13T11:18:34.210Z,98310.25
2023-02-13T11:21:07.897Z,98317.66
2023-02-13T11:23:39.910Z,98316.28
2023-02-13T11:26:10.022Z,98317.66
2023-02-13T11:28:40.425Z,98316.53
2023-02-13T11:31:20.790Z,98308.59
2023-02-13T11:33:49.258Z,98311.78
2023-02-13T11:36:23.543Z,98310.66
2023-02-13T11:39:00.954Z,98317.28
2023-02-13T11:41:29.878Z,98318.94
2023-02-13T11:44:02.176Z,98323.25
2023-02-13T11:46:31.812Z,98323.84
2023-02-13T11:49:02.736Z,98315.84
2023-02-13T11:51:41.196Z,98321.28
2023-02-13T11:54:24.782Z,98328.34
2023-02-13T11:57:04.342Z,98320.34
2023-02-13T11:59:39.967Z,98324.16
2023-02-13T12:02:20.051Z,98323.25
2023-02-13T12:04:49.753Z,98318.69
2023-02-13T12:07:21.398Z,98320.31
2023-02-13T12:09:54.644Z,98312.88
2023-02-13T12:12:28.717Z,98306.94
2023-02-13T12:14:57.800Z,98306.81
2023-02-13T12:17:32.577Z,98311.41
2023-02-13T12:20:01.479Z,98311.03
2023-02-13T12:22:34.975Z,98312.63
2023-02-13T12:25:28.991Z,98305.59
2023-02-13T12:28:07.411Z,98308.59
2023-02-13T12:30:54.555Z,98308.31
2023-02-13T12:33:33.992Z,98301.22
2023-02-13T12:36:03.898Z,98291.63
2023-02-13T12:38:44.310Z,98297.16
2023-02-13T12:41:19.600Z,98299.31
2023-02-13T12:44:16.918Z,98287.41
2023-02-13T12:46:53.818Z,98274.91
2023-02-13T12:49:37.052Z,98269.28
2023-02-13T12:52:19.974Z,98274.78
2023-02-13T12:54:55.934Z,98270.50
2023-02-13T12:57:38.044Z,98268.13
2023-02-13T13:00:31.281Z,98270.66
2023-02-13T13:03:17.643Z,98271.16
2023-02-13T13:06:11.008Z,98260.03
2023-02-13T13:08:48.620Z,98267.19
2023-02-13T13:11:28.991Z,98256.75
2023-02-13T13:14:06.485Z,98257.31
2023-02-13T13:16:43.010Z,98257.41
2023-02-13T13:19:17.548Z,98270.06
2023-02-13T13:21:49.282Z,98276.59
2023-02-13T13:24:28.002Z,98261.38
2023-02-13T13:26:57.348Z,98269.06
2023-02-13T13:29:28.840Z,98282.03
2023-02-13T13:31:58.935Z,98273.38
2023-02-13T13:34:28.504Z,98269.56
2023-02-13T13:37:01.940Z,98274.91
2023-02-13T13:39:38.144Z,98266.44
2023-02-13T13:42:13.410Z,98275.66
2023-02-13T13:45:16.752Z,98270.75
2023-02-13T13:48:02.888Z,98275.16
2023-02-13T13:50:32.936Z,98271.31
2023-02-13T13:53:10.618Z,98268.50
2023-02-13T13:56:09.362Z,98266.16
2023-02-13T13:58:40.479Z,98259.13
2023-02-13T14:01:22.344Z,98257.69
2023-02-13T14:03:51.656Z,98259.25
2023-02-13T14:06:21.630Z,98255.63
2023-02-13T14:09:10.680Z,98259.06
2023-02-13T14:11:46.960Z,98255.31
2023-02-13T14:14:49.194Z,98244.38
2023-02-13T14:17:41.568Z,98249.34
2023-02-13T14:20:22.843Z,98252.97
2023-02-13T14:22:51.138Z,98248.47
2023-02-13T14:25:25.328Z,98245.47
2023-02-13T14:27:58.380Z,98245.06
2023-02-13T14:30:31.545Z,98253.06
2023-02-13T14:33:03.445Z,98249.19
2023-02-13T14:35:34.002Z,98252.78
2023-02-13T14:38:03.701Z,98249.03
2023-02-13T14:40:43.995Z,98247.81
2023-02-13T14:43:34.099Z,98258.88
2023-02-13T14:46:09.177Z,98246.31
2023-02-13T14:48:43.296Z,98243.56
2023-02-13T14:51:21.957Z,98239.91
2023-02-13T14:53:54.133Z,98242.53
2023-02-13T14:56:23.675Z,98240.66
2023-02-13T14:58:54.302Z,98238.31
2023-02-13T15:01:26.557Z,98233.28
2023-02-13T15:04:00.358Z,98245.47
2023-02-13T15:06:31.231Z,98239.84
2023-02-13T15:09:01.543Z,98241.28
2023-02-13T15:11:37.998Z,98243.41
2023-02-13T15:14:26.352Z,98240.50
2023-02-13T15:16:57.236Z,98237.88
2023-02-13T15:19:28.334Z,98242.25
2023-02-13T15:21:59.230Z,98232.78
2023-02-13T15:24:28.379Z,98235.72
2023-02-13T15:27:01.735Z,98232.84
2023-02-13T15:29:40.939Z,98240.47
2023-02-13T15:32:20.107Z,98242.72
2023-02-13T15:34:50.026Z,98232.72
2023-02-13T15:37:25.417Z,98239.09
2023-02-13T15:39:53.693Z,98237.25
2023-02-13T15:42:22.204Z,98232.09
2023-02-13T15:44:52.489Z,98243.94
2023-02-13T15:47:26.420Z,98238.31
2023-02-13T15:49:56.181Z,98249.94
2023-02-13T15:52:28.438Z,98245.81
2023-02-13T15:54:57.613Z,98250.16
2023-02-13T15:57:26.912Z,98246.09
2023-02-13T15:59:56.806Z,98250.94
2023-02-13T16:02:27.168Z,98246.66
2023-02-13T16:04:57.090Z,98252.66
2023-02-13T16:07:25.336Z,98257.91
2023-02-13T16:09:53.772Z,98259.88
2023-02-13T16:12:24.400Z,98262.72
2023-02-13T16:14:53.723Z,98254.56
2023-02-13T16:17:28.452Z,98247.88
2023-02-13T16:20:01.282Z,98253.00
2023-02-13T16:22:35.077Z,98245.38
2023-02-13T16:25:17.441Z,98244.84
2023-02-13T16:27:46.998Z,98247.97
2023-02-13T16:30:26.984Z,98240.31
2023-02-13T16:33:27.995Z,98243.91
2023-02-13T16:35:58.780Z,98248.81
2023-02-13T16:38:37.139Z,98256.88
2023-02-13T16:41:06.501Z,98246.38
2023-02-13T16:43:39.695Z,98245.38
2023-02-13T16:46:13.065Z,98251.94
2023-02-13T16:48:41.366Z,98255.19
2023-02-13T16:51:11.673Z,98244.53
2023-02-13T16:53:40.351Z,98258.38
2023-02-13T16:56:09.968Z,98257.22
2023-02-13T16:58:38.340Z,98257.31
2023-02-13T17:01:06.701Z,98245.63
2023-02-13T17:03:34.985Z,98254.97
2023-02-13T17:06:04.022Z,98257.06
2023-02-13T17:08:33.649Z,98248.25
2023-02-13T17:11:04.411Z,98259.00
2023-02-13T17:13:33.666Z,98262.00
2023-02-13T17:16:01.968Z,98257.56
2023-02-13T17:18:30.278Z,98266.34
2023-02-13T17:20:58.732Z,98261.13
2023-02-13T17:23:27.234Z,98266.03
2023-02-13T17:25:56.805Z,98270.63
2023-02-13T17:28:26.816Z,98274.78
2023-02-13T17:30:57.235Z,98269.31
2023-02-13T17:33:27.185Z,98278.72
2023-02-13T17:35:55.469Z,98273.28
2023-02-13T17:38:24.111Z,98269.91
2023-02-13T17:40:52.366Z,98281.69
2023-02-13T17:43:21.975Z,98283.13
2023-02-13T17:45:50.896Z,98279.91
2023-02-13T17:48:19.191Z,98283.59
2023-02-13T17:50:52.482Z,98276.13
2023-02-13T17:53:23.304Z,98284.72
2023-02-13T17:55:51.731Z,98288.38
2023-02-13T17:58:20.144Z,98279.94
2023-02-13T18:00:49.880Z,98290.06
2023-02-13T18:03:18.121Z,98280.56
2023-02-13T18:05:48.674Z,98276.91
2023-02-13T18:08:16.732Z,98273.59
2023-02-13T18:10:44.893Z,98270.09
2023-02-13T18:13:13.221Z,98270.84
2023-02-13T18:15:43.580Z,98269.97
2023-02-13T18:18:15.136Z,98266.31
2023-02-13T18:20:43.539Z,98260.47
2023-02-13T18:23:11.804Z,98254.03
2023-02-13T18:25:40.161Z,98255.22
2023-02-13T18:28:08.421Z,98264.34
2023-02-13T18:30:36.644Z,98269.03
2023-02-13T18:33:05.163Z,98257.00
2023-02-13T18:35:36.545Z,98257.44
2023-02-13T18:38:05.038Z,98256.00
2023-02-13T18:40:33.257Z,98252.69
2023-02-13T18:43:01.487Z,98255.13
2023-02-13T18:45:29.855Z,98254.19
2023-02-13T18:47:58.137Z,98254.72
2023-02-13T18:50:26.364Z,98256.56
2023-02-13T18:52:55.965Z,98254.78
2023-02-13T18:55:24.174Z,98266.50
2023-02-13T18:57:53.392Z,98272.09
2023-02-13T19:00:23.515Z,98273.84
2023-02-13T19:02:51.904Z,98269.78
2023-02-13T19:05:20.306Z,98272.44
2023-02-13T19:07:48.663Z,98271.75
2023-02-13T19:10:18.598Z,98266.38
2023-02-13T19:12:46.933Z,98265.66
2023-02-13T19:15:16.401Z,98269.50
2023-02-13T19:17:45.327Z,98263.03
2023-02-13T19:20:16.662Z,98256.38
2023-02-13T19:22:45.264Z,98256.50
2023-02-13T19:25:13.632Z,98258.19
2023-02-13T19:27:43.425Z,98255.38
2023-02-13T19:30:12.613Z,98253.81
2023-02-13T19:32:41.612Z,98264.19
2023-02-13T19:35:09.870Z,98271.16
2023-02-13T19:37:43.901Z,98267.47
2023-02-13T19:40:13.677Z,98265.91
2023-02-13T19:42:43.387Z,98266.22
2023-02-13T19:45:12.056Z,98258.91
2023-02-13T19:47:40.358Z,98258.19
2023-02-13T19:50:09.302Z,98270.34
2023-02-13T19:52:38.003Z,98265.72
2023-02-13T19:55:06.640Z,98260.63
2023-02-13T19:57:35.000Z,98273.91
2023-02-13T20:00:05.274Z,98273.00
2023-02-13T20:02:33.557Z,98274.91
2023-02-13T20:05:07.008Z,98275.00
2023-02-13T20:07:35.297Z,98274.69
2023-02-13T20:10:03.659Z,98272.78
2023-02-13T20:12:31.962Z,98282.03
2023-02-13T20:15:00.375Z,98270.31
2023-02-13T20:17:30.121Z,98266.84
2023-02-13T20:19:58.963Z,98272.09
2023-02-13T20:22:27.310Z,98262.78
2023-02-13T20:24:55.634Z,98276.44
2023-02-13T20:27:23.935Z,98278.91
2023-02-13T20:29:58.879Z,98276.94
2023-02-13T20:32:36.239Z,98277.44
2023-02-13T20:35:04.800Z,98275.31
2023-02-13T20:37:33.170Z,98266.06
2023-02-13T20:40:01.473Z,98276.63
2023-02-13T20:42:29.698Z,98280.25
2023-02-13T20:44:57.963Z,98293.31
2023-02-13T20:47:26.237Z,98300.22
2023-02-13T20:49:55.834Z,98283.13
2023-02-13T20:52:24.095Z,98284.88
2023-02-13T20:54:52.341Z,98281.06
2023-02-13T20:57:20.651Z,98278.09
2023-02-13T20:59:48.871Z,98283.75
2023-02-13T21:02:19.521Z,98283.81
2023-02-13T21:04:47.568Z,98276.13
2023-02-13T21:07:17.172Z,98268.47
2023-02-13T21:09:45.532Z,98265.91
2023-02-13T21:12:14.474Z,98265.22
2023-02-13T21:14:42.983Z,98260.06
2023-02-13T21:17:11.214Z,98263.75
2023-02-13T21:19:39.747Z,98266.41
2023-02-13T21:22:14.244Z,98259.69
2023-02-13T21:24:44.294Z,98252.47
2023-02-13T21:27:12.490Z,98254.91
2023-02-13T21:29:40.732Z,98245.47
2023-02-13T21:32:09.084Z,98247.00
2023-02-13T21:34:37.376Z,98247.34
2023-02-13T21:37:05.610Z,98237.63
2023-02-13T21:39:34.368Z,98237.59
2023-02-13T21:42:05.871Z,98233.53
2023-02-13T21:44:34.091Z,98234.44
2023-02-13T21:47:02.423Z,98229.38
2023-02-13T21:49:30.674Z,98227.94
2023-02-13T21:51:58.922Z,98223.81
2023-02-13T21:54:27.304Z,98225.06
2023-02-13T21:56:55.511Z,98222.31
2023-02-13T21:59:25.106Z,98212.19
2023-02-13T22:01:54.177Z,98215.00
2023-02-13T22:04:22.657Z,98205.72
2023-02-13T22:06:52.072Z,98204.78
2023-02-13T22:09:21.486Z,98206.88
2023-02-13T22:11:51.777Z,98198.19
2023-02-13T22:14:20.079Z,98198.44
2023-02-13T22:16:51.308Z,98207.38
2023-02-13T22:19:20.278Z,98201.41
2023-02-13T22:21:48.589Z,98204.84
2023-02-13T22:24:16.833Z,98203.75
2023-02-13T22:26:46.226Z,98213.63
2023-02-13T22:29:17.711Z,98193.88
2023-02-13T22:31:46.100Z,98191.03
2023-02-13T22:34:15.999Z,98194.25
2023-02-13T22:36:44.337Z,98201.81
2023-02-13T22:39:13.287Z,98209.53
2023-02-13T22:41:44.433Z,98206.81
2023-02-13T22:44:12.688Z,98206.38
2023-02-13T22:46:40.963Z,98200.53
2023-02-13T22:49:09.229Z,98208.28
2023-02-13T22:51:38.824Z,98212.50
2023-02-13T22:54:07.583Z,98203.91
2023-02-13T22:56:36.181Z,98213.59
2023-02-13T22:59:05.063Z,98213.94
2023-02-13T23:01:33.332Z,98214.56
2023-02-13T23:04:01.602Z,98206.66
2023-02-13T23:06:29.933Z,98214.75
2023-02-13T23:08:59.502Z,98217.84
2023-02-13T23:11:46.251Z,98224.38
2023-02-13T23:14:14.664Z,98213.50
2023-02-13T23:17:01.639Z,98214.13
2023-02-13T23:19:30.455Z,98216.88
2023-02-13T23:21:58.785Z,98209.28
2023-02-13T23:24:28.870Z,98210.88
2023-02-13T23:26:57.126Z,98216.75
2023-02-13T23:29:25.481Z,98211.47
2023-02-13T23:31:53.988Z,98205.38
2023-02-13T23:34:22.322Z,98203.00
2023-02-13T23:36:50.570Z,98206.50
2023-02-13T23:39:19.821Z,98212.75
2023-02-13T23:41:49.397Z,98205.88
2023-02-13T23:44:17.688Z,98209.53
2023-02-13T23:46:45.994Z,98203.84
2023-02-13T23:49:14.390Z,98208.72
2023-02-13T23:51:42.579Z,98205.50
2023-02-13T23:54:15.380Z,98205.34
2023-02-13T23:56:43.744Z,98206.72
2023-02-13T23:59:13.637Z,98196.88
